Terminal Aerodrome Forecast
Issued by NWS

Home | Current Version | Previous Version | Text Only | Print | Product List | Glossary On
Versions: 1 2 3 4 5 6 7 8 9 10 11 12 13 14 15 16 17 18 19 20 21 22 23
705
FTUS43 KGRB 241135
TAFMTW
TAF
KMTW 241135Z 2412/2512 15006KT P6SM SCT090 BKN250
     FM241600 19010G17KT P6SM SCT050 BKN080
      TEMPO 2417/2420 -SHRA BKN050
     FM242200 19008KT P6SM VCTS BKN040CB
     FM250200 25005KT P6SM SCT035 BKN250
     FM250800 03004KT P6SM SCT007 BKN250
      TEMPO 2509/2512 2SM BR BKN005=

USA.gov is the U.S. government's official web portal to all federal, state and local government web resources and services.